sensor_id;sensor_type;location;lat;lon;timestamp;temperature;humidity
50570;DHT22;36525;49.398;7.614;2023-06-14T00:01:36;14.60;99.80
50570;DHT22;36525;49.398;7.614;2023-06-14T00:04:05;14.60;99.70
50570;DHT22;36525;49.398;7.614;2023-06-14T00:06:33;14.70;99.70
50570;DHT22;36525;49.398;7.614;2023-06-14T00:09:00;14.70;99.60
50570;DHT22;36525;49.398;7.614;2023-06-14T00:11:27;14.80;99.60
50570;DHT22;36525;49.398;7.614;2023-06-14T00:13:56;14.80;99.50
50570;DHT22;36525;49.398;7.614;2023-06-14T00:16:23;14.80;99.90
50570;DHT22;36525;49.398;7.614;2023-06-14T00:18:51;14.80;99.90
50570;DHT22;36525;49.398;7.614;2023-06-14T00:21:21;14.70;99.90
50570;DHT22;36525;49.398;7.614;2023-06-14T00:23:48;14.80;99.90
50570;DHT22;36525;49.398;7.614;2023-06-14T00:26:16;14.80;99.90
50570;DHT22;36525;49.398;7.614;2023-06-14T00:28:43;14.70;99.90
50570;DHT22;36525;49.398;7.614;2023-06-14T00:31:11;14.60;99.90
50570;DHT22;36525;49.398;7.614;2023-06-14T00:33:40;14.60;99.90
50570;DHT22;36525;49.398;7.614;2023-06-14T00:36:07;14.50;99.90
50570;DHT22;36525;49.398;7.614;2023-06-14T00:38:34;14.50;99.90
50570;DHT22;36525;49.398;7.614;2023-06-14T00:41:02;14.50;99.90
50570;DHT22;36525;49.398;7.614;2023-06-14T00:43:29;14.50;99.90
50570;DHT22;36525;49.398;7.614;2023-06-14T00:45:56;14.60;99.90
50570;DHT22;36525;49.398;7.614;2023-06-14T00:48:24;14.50;99.90
50570;DHT22;36525;49.398;7.614;2023-06-14T00:50:51;14.40;99.90
50570;DHT22;36525;49.398;7.614;2023-06-14T00:53:19;14.40;99.90
50570;DHT22;36525;49.398;7.614;2023-06-14T00:55:52;14.30;99.90
50570;DHT22;36525;49.398;7.614;2023-06-14T00:58:19;14.40;99.90
50570;DHT22;36525;49.398;7.614;2023-06-14T01:00:48;14.50;99.90
50570;DHT22;36525;49.398;7.614;2023-06-14T01:03:15;14.40;99.90
50570;DHT22;36525;49.398;7.614;2023-06-14T01:05:56;14.40;99.90
50570;DHT22;36525;49.398;7.614;2023-06-14T01:08:39;14.30;99.90
50570;DHT22;36525;49.398;7.614;2023-06-14T01:11:22;14.20;99.90
50570;DHT22;36525;49.398;7.614;2023-06-14T01:13:55;14.20;99.90
50570;DHT22;36525;49.398;7.614;2023-06-14T01:16:23;14.20;99.90
50570;DHT22;36525;49.398;7.614;2023-06-14T01:18:52;14.20;99.90
50570;DHT22;36525;49.398;7.614;2023-06-14T01:21:25;14.20;99.90
50570;DHT22;36525;49.398;7.614;2023-06-14T01:23:52;14.20;99.90
50570;DHT22;36525;49.398;7.614;2023-06-14T01:26:23;14.10;99.90
50570;DHT22;36525;49.398;7.614;2023-06-14T01:28:51;14.10;99.90
50570;DHT22;36525;49.398;7.614;2023-06-14T01:31:20;14.20;99.90
50570;DHT22;36525;49.398;7.614;2023-06-14T01:33:51;14.10;99.90
50570;DHT22;36525;49.398;7.614;2023-06-14T01:36:19;14.10;99.90
50570;DHT22;36525;49.398;7.614;2023-06-14T01:38:48;14.00;99.90
50570;DHT22;36525;49.398;7.614;2023-06-14T01:41:18;13.90;99.90
50570;DHT22;36525;49.398;7.614;2023-06-14T01:43:48;13.80;99.90
50570;DHT22;36525;49.398;7.614;2023-06-14T01:46:15;13.80;99.90
50570;DHT22;36525;49.398;7.614;2023-06-14T01:48:43;13.80;99.90
50570;DHT22;36525;49.398;7.614;2023-06-14T01:51:10;13.70;99.90
50570;DHT22;36525;49.398;7.614;2023-06-14T01:53:38;13.80;99.90
50570;DHT22;36525;49.398;7.614;2023-06-14T01:56:06;13.80;99.90
50570;DHT22;36525;49.398;7.614;2023-06-14T01:58:33;13.80;99.90
50570;DHT22;36525;49.398;7.614;2023-06-14T02:01:01;13.80;99.90
50570;DHT22;36525;49.398;7.614;2023-06-14T02:03:29;13.70;99.90
50570;DHT22;36525;49.398;7.614;2023-06-14T02:05:59;13.70;99.90
50570;DHT22;36525;49.398;7.614;2023-06-14T02:08:26;13.70;99.90
50570;DHT22;36525;49.398;7.614;2023-06-14T02:10:53;13.70;99.90
50570;DHT22;36525;49.398;7.614;2023-06-14T02:13:20;13.70;99.90
50570;DHT22;36525;49.398;7.614;2023-06-14T02:15:48;13.60;99.90
50570;DHT22;36525;49.398;7.614;2023-06-14T02:18:18;13.60;99.90
50570;DHT22;36525;49.398;7.614;2023-06-14T02:20:45;13.60;99.90
50570;DHT22;36525;49.398;7.614;2023-06-14T02:23:12;13.50;99.90
50570;DHT22;36525;49.398;7.614;2023-06-14T02:25:39;13.40;99.90
50570;DHT22;36525;49.398;7.614;2023-06-14T02:28:07;13.30;99.90
50570;DHT22;36525;49.398;7.614;2023-06-14T02:30:34;13.30;99.90
50570;DHT22;36525;49.398;7.614;2023-06-14T02:33:01;13.30;99.90
50570;DHT22;36525;49.398;7.614;2023-06-14T02:35:30;13.30;99.90
50570;DHT22;36525;49.398;7.614;2023-06-14T02:37:57;13.30;99.90
50570;DHT22;36525;49.398;7.614;2023-06-14T02:40:24;13.30;99.90
50570;DHT22;36525;49.398;7.614;2023-06-14T02:42:51;13.20;99.90
50570;DHT22;36525;49.398;7.614;2023-06-14T02:45:18;13.20;99.90
50570;DHT22;36525;49.398;7.614;2023-06-14T02:47:46;13.10;99.90
50570;DHT22;36525;49.398;7.614;2023-06-14T02:50:13;13.10;99.90
50570;DHT22;36525;49.398;7.614;2023-06-14T02:52:41;13.10;99.90
50570;DHT22;36525;49.398;7.614;2023-06-14T02:55:11;13.10;99.90
50570;DHT22;36525;49.398;7.614;2023-06-14T02:57:39;13.10;99.90
50570;DHT22;36525;49.398;7.614;2023-06-14T03:00:06;13.00;99.90
50570;DHT22;36525;49.398;7.614;2023-06-14T03:02:41;12.90;99.90
50570;DHT22;36525;49.398;7.614;2023-06-14T03:05:10;12.80;99.90
50570;DHT22;36525;49.398;7.614;2023-06-14T03:07:37;12.70;99.90
50570;DHT22;36525;49.398;7.614;2023-06-14T03:10:08;12.70;99.90
50570;DHT22;36525;49.398;7.614;2023-06-14T03:12:36;12.70;99.90
50570;DHT22;36525;49.398;7.614;2023-06-14T03:15:03;12.70;99.90
50570;DHT22;36525;49.398;7.614;2023-06-14T03:17:31;12.60;99.90
50570;DHT22;36525;49.398;7.614;2023-06-14T03:20:00;12.70;99.90
50570;DHT22;36525;49.398;7.614;2023-06-14T03:22:28;12.70;99.90
50570;DHT22;36525;49.398;7.614;2023-06-14T03:24:55;12.70;99.90
50570;DHT22;36525;49.398;7.614;2023-06-14T03:27:22;12.60;99.90
50570;DHT22;36525;49.398;7.614;2023-06-14T03:29:49;12.60;99.90
50570;DHT22;36525;49.398;7.614;2023-06-14T03:32:16;12.60;99.90
50570;DHT22;36525;49.398;7.614;2023-06-14T03:34:43;12.60;99.90
50570;DHT22;36525;49.398;7.614;2023-06-14T03:37:11;12.50;99.90
50570;DHT22;36525;49.398;7.614;2023-06-14T03:39:39;12.50;99.90
50570;DHT22;36525;49.398;7.614;2023-06-14T03:42:13;12.40;99.90
50570;DHT22;36525;49.398;7.614;2023-06-14T03:44:42;12.40;99.90
50570;DHT22;36525;49.398;7.614;2023-06-14T03:47:12;12.30;99.90
50570;DHT22;36525;49.398;7.614;2023-06-14T03:49:39;12.30;99.90
50570;DHT22;36525;49.398;7.614;2023-06-14T03:52:06;12.30;99.90
50570;DHT22;36525;49.398;7.614;2023-06-14T03:54:34;12.30;99.90
50570;DHT22;36525;49.398;7.614;2023-06-14T03:57:04;12.30;99.90
50570;DHT22;36525;49.398;7.614;2023-06-14T03:59:32;12.40;99.90
50570;DHT22;36525;49.398;7.614;2023-06-14T04:01:59;12.40;99.90
50570;DHT22;36525;49.398;7.614;2023-06-14T04:04:27;12.40;99.90
50570;DHT22;36525;49.398;7.614;2023-06-14T04:06:56;12.40;99.90
50570;DHT22;36525;49.398;7.614;2023-06-14T04:09:25;12.50;99.90
50570;DHT22;36525;49.398;7.614;2023-06-14T04:11:56;12.50;99.90
50570;DHT22;36525;49.398;7.614;2023-06-14T04:14:23;12.50;99.90
50570;DHT22;36525;49.398;7.614;2023-06-14T04:16:50;12.50;99.90
50570;DHT22;36525;49.398;7.614;2023-06-14T04:19:17;12.50;99.90
50570;DHT22;36525;49.398;7.614;2023-06-14T04:21:44;12.60;99.90
50570;DHT22;36525;49.398;7.614;2023-06-14T04:24:11;12.70;99.90
50570;DHT22;36525;49.398;7.614;2023-06-14T04:26:44;12.80;99.90
50570;DHT22;36525;49.398;7.614;2023-06-14T04:29:12;12.90;99.90
50570;DHT22;36525;49.398;7.614;2023-06-14T04:31:43;12.90;99.90
50570;DHT22;36525;49.398;7.614;2023-06-14T04:34:12;13.00;99.90
50570;DHT22;36525;49.398;7.614;2023-06-14T04:36:43;13.10;99.90
50570;DHT22;36525;49.398;7.614;2023-06-14T04:39:16;13.10;99.90
50570;DHT22;36525;49.398;7.614;2023-06-14T04:41:46;13.20;99.90
50570;DHT22;36525;49.398;7.614;2023-06-14T04:44:13;13.30;99.90
50570;DHT22;36525;49.398;7.614;2023-06-14T04:46:43;13.40;99.90
50570;DHT22;36525;49.398;7.614;2023-06-14T04:49:14;13.50;99.90
50570;DHT22;36525;49.398;7.614;2023-06-14T04:51:45;13.50;99.90
50570;DHT22;36525;49.398;7.614;2023-06-14T04:54:14;13.60;99.90
50570;DHT22;36525;49.398;7.614;2023-06-14T04:56:42;13.70;99.90
50570;DHT22;36525;49.398;7.614;2023-06-14T04:59:09;13.80;99.90
50570;DHT22;36525;49.398;7.614;2023-06-14T05:01:38;13.90;99.90
50570;DHT22;36525;49.398;7.614;2023-06-14T05:04:05;14.00;99.90
50570;DHT22;36525;49.398;7.614;2023-06-14T05:06:33;14.10;99.90
50570;DHT22;36525;49.398;7.614;2023-06-14T05:09:00;14.30;99.90
50570;DHT22;36525;49.398;7.614;2023-06-14T05:11:27;14.50;99.90
50570;DHT22;36525;49.398;7.614;2023-06-14T05:13:54;14.70;99.90
50570;DHT22;36525;49.398;7.614;2023-06-14T05:16:22;14.90;99.90
50570;DHT22;36525;49.398;7.614;2023-06-14T05:18:49;15.00;99.90
50570;DHT22;36525;49.398;7.614;2023-06-14T05:21:17;15.20;99.90
50570;DHT22;36525;49.398;7.614;2023-06-14T05:23:45;15.30;99.90
50570;DHT22;36525;49.398;7.614;2023-06-14T05:26:13;15.50;99.90
50570;DHT22;36525;49.398;7.614;2023-06-14T05:28:40;15.60;99.90
50570;DHT22;36525;49.398;7.614;2023-06-14T05:31:07;15.80;99.90
50570;DHT22;36525;49.398;7.614;2023-06-14T05:33:34;15.90;99.90
50570;DHT22;36525;49.398;7.614;2023-06-14T05:36:04;16.00;99.90
50570;DHT22;36525;49.398;7.614;2023-06-14T05:38:33;16.10;99.90
50570;DHT22;36525;49.398;7.614;2023-06-14T05:41:01;16.20;99.90
50570;DHT22;36525;49.398;7.614;2023-06-14T05:43:28;16.40;99.90
50570;DHT22;36525;49.398;7.614;2023-06-14T05:45:56;16.60;99.90
50570;DHT22;36525;49.398;7.614;2023-06-14T05:48:23;16.60;99.90
50570;DHT22;36525;49.398;7.614;2023-06-14T05:50:50;16.70;99.90
50570;DHT22;36525;49.398;7.614;2023-06-14T05:53:17;16.90;99.90
50570;DHT22;36525;49.398;7.614;2023-06-14T05:55:44;17.00;99.90
50570;DHT22;36525;49.398;7.614;2023-06-14T05:58:11;17.20;99.90
50570;DHT22;36525;49.398;7.614;2023-06-14T06:00:40;17.30;99.90
50570;DHT22;36525;49.398;7.614;2023-06-14T06:03:07;17.40;99.90
50570;DHT22;36525;49.398;7.614;2023-06-14T06:05:39;17.50;99.90
50570;DHT22;36525;49.398;7.614;2023-06-14T06:08:07;17.60;99.90
50570;DHT22;36525;49.398;7.614;2023-06-14T06:10:34;17.70;99.90
50570;DHT22;36525;49.398;7.614;2023-06-14T06:13:01;17.70;99.90
50570;DHT22;36525;49.398;7.614;2023-06-14T06:15:28;17.80;99.90
50570;DHT22;36525;49.398;7.614;2023-06-14T06:17:55;17.80;99.90
50570;DHT22;36525;49.398;7.614;2023-06-14T06:20:23;17.90;99.90
50570;DHT22;36525;49.398;7.614;2023-06-14T06:22:56;18.00;99.90
50570;DHT22;36525;49.398;7.614;2023-06-14T06:25:28;18.10;99.90
50570;DHT22;36525;49.398;7.614;2023-06-14T06:27:55;18.20;99.90
50570;DHT22;36525;49.398;7.614;2023-06-14T06:30:25;18.30;99.90
50570;DHT22;36525;49.398;7.614;2023-06-14T06:32:53;18.30;99.90
50570;DHT22;36525;49.398;7.614;2023-06-14T06:35:20;18.30;99.90
50570;DHT22;36525;49.398;7.614;2023-06-14T06:37:47;18.40;99.80
50570;DHT22;36525;49.398;7.614;2023-06-14T06:40:14;18.30;99.90
50570;DHT22;36525;49.398;7.614;2023-06-14T06:42:42;18.50;99.70
50570;DHT22;36525;49.398;7.614;2023-06-14T06:45:09;18.50;99.80
50570;DHT22;36525;49.398;7.614;2023-06-14T06:47:36;18.60;99.60
50570;DHT22;36525;49.398;7.614;2023-06-14T06:50:04;18.60;99.80
50570;DHT22;36525;49.398;7.614;2023-06-14T06:52:34;18.70;99.70
50570;DHT22;36525;49.398;7.614;2023-06-14T06:55:02;18.80;99.60
50570;DHT22;36525;49.398;7.614;2023-06-14T06:57:29;18.90;99.80
50570;DHT22;36525;49.398;7.614;2023-06-14T06:59:57;19.10;99.20
50570;DHT22;36525;49.398;7.614;2023-06-14T07:02:25;19.30;98.30
50570;DHT22;36525;49.398;7.614;2023-06-14T07:04:52;19.30;98.40
50570;DHT22;36525;49.398;7.614;2023-06-14T07:07:19;19.40;97.90
50570;DHT22;36525;49.398;7.614;2023-06-14T07:09:47;19.50;97.30
50570;DHT22;36525;49.398;7.614;2023-06-14T07:12:14;19.40;97.10
50570;DHT22;36525;49.398;7.614;2023-06-14T07:14:42;19.40;97.20
50570;DHT22;36525;49.398;7.614;2023-06-14T07:17:09;19.50;97.10
50570;DHT22;36525;49.398;7.614;2023-06-14T07:19:36;19.50;97.30
50570;DHT22;36525;49.398;7.614;2023-06-14T07:22:03;19.70;97.40
50570;DHT22;36525;49.398;7.614;2023-06-14T07:24:32;19.90;96.80
50570;DHT22;36525;49.398;7.614;2023-06-14T07:26:59;20.00;95.90
50570;DHT22;36525;49.398;7.614;2023-06-14T07:29:28;20.00;95.80
50570;DHT22;36525;49.398;7.614;2023-06-14T07:31:55;20.00;95.80
50570;DHT22;36525;49.398;7.614;2023-06-14T07:34:22;20.00;95.60
50570;DHT22;36525;49.398;7.614;2023-06-14T07:36:49;20.00;95.10
50570;DHT22;36525;49.398;7.614;2023-06-14T07:39:16;20.10;95.00
50570;DHT22;36525;49.398;7.614;2023-06-14T07:41:43;20.10;94.90
50570;DHT22;36525;49.398;7.614;2023-06-14T07:44:10;20.20;94.60
50570;DHT22;36525;49.398;7.614;2023-06-14T07:46:39;20.40;94.50
50570;DHT22;36525;49.398;7.614;2023-06-14T07:49:07;20.40;95.20
50570;DHT22;36525;49.398;7.614;2023-06-14T07:51:34;20.50;94.80
50570;DHT22;36525;49.398;7.614;2023-06-14T07:54:01;20.70;94.20
50570;DHT22;36525;49.398;7.614;2023-06-14T07:56:30;20.90;93.90
50570;DHT22;36525;49.398;7.614;2023-06-14T07:58:57;21.00;93.50
50570;DHT22;36525;49.398;7.614;2023-06-14T08:01:24;21.00;93.50
50570;DHT22;36525;49.398;7.614;2023-06-14T08:03:52;21.00;93.60
50570;DHT22;36525;49.398;7.614;2023-06-14T08:06:20;21.00;93.40
50570;DHT22;36525;49.398;7.614;2023-06-14T08:08:47;21.10;93.20
50570;DHT22;36525;49.398;7.614;2023-06-14T08:11:14;21.10;93.20
50570;DHT22;36525;49.398;7.614;2023-06-14T08:13:42;21.20;93.40
50570;DHT22;36525;49.398;7.614;2023-06-14T08:16:09;21.30;92.90
50570;DHT22;36525;49.398;7.614;2023-06-14T08:18:37;21.30;92.80
50570;DHT22;36525;49.398;7.614;2023-06-14T08:21:04;21.40;92.90
50570;DHT22;36525;49.398;7.614;2023-06-14T08:23:31;21.50;92.70
50570;DHT22;36525;49.398;7.614;2023-06-14T08:25:59;21.60;92.10
50570;DHT22;36525;49.398;7.614;2023-06-14T08:28:28;21.50;92.20
50570;DHT22;36525;49.398;7.614;2023-06-14T08:30:55;21.40;93.00
50570;DHT22;36525;49.398;7.614;2023-06-14T08:33:22;21.50;92.40
50570;DHT22;36525;49.398;7.614;2023-06-14T08:35:50;21.80;92.90
50570;DHT22;36525;49.398;7.614;2023-06-14T08:38:18;22.00;91.60
50570;DHT22;36525;49.398;7.614;2023-06-14T08:40:47;22.00;92.10
50570;DHT22;36525;49.398;7.614;2023-06-14T08:43:18;22.10;92.00
50570;DHT22;36525;49.398;7.614;2023-06-14T08:45:46;22.20;91.50
50570;DHT22;36525;49.398;7.614;2023-06-14T08:48:15;22.40;91.00
50570;DHT22;36525;49.398;7.614;2023-06-14T08:50:45;22.50;90.70
50570;DHT22;36525;49.398;7.614;2023-06-14T08:53:14;22.60;90.60
50570;DHT22;36525;49.398;7.614;2023-06-14T08:55:47;22.60;90.60
50570;DHT22;36525;49.398;7.614;2023-06-14T08:58:14;23.00;90.10
50570;DHT22;36525;49.398;7.614;2023-06-14T09:00:42;23.30;89.60
50570;DHT22;36525;49.398;7.614;2023-06-14T09:03:10;23.70;87.20
50570;DHT22;36525;49.398;7.614;2023-06-14T09:05:41;24.10;87.70
50570;DHT22;36525;49.398;7.614;2023-06-14T09:08:08;24.60;85.70
50570;DHT22;36525;49.398;7.614;2023-06-14T09:10:36;24.90;83.90
50570;DHT22;36525;49.398;7.614;2023-06-14T09:13:05;25.20;81.80
50570;DHT22;36525;49.398;7.614;2023-06-14T09:15:34;25.50;82.50
50570;DHT22;36525;49.398;7.614;2023-06-14T09:18:02;25.60;78.40
50570;DHT22;36525;49.398;7.614;2023-06-14T09:20:31;25.60;78.70
50570;DHT22;36525;49.398;7.614;2023-06-14T09:23:01;25.80;78.60
50570;DHT22;36525;49.398;7.614;2023-06-14T09:25:29;26.10;78.50
50570;DHT22;36525;49.398;7.614;2023-06-14T09:28:09;26.20;76.20
50570;DHT22;36525;49.398;7.614;2023-06-14T09:30:42;26.10;76.40
50570;DHT22;36525;49.398;7.614;2023-06-14T09:33:10;26.60;75.60
50570;DHT22;36525;49.398;7.614;2023-06-14T09:35:38;27.00;75.30
50570;DHT22;36525;49.398;7.614;2023-06-14T09:38:06;26.80;76.20
50570;DHT22;36525;49.398;7.614;2023-06-14T09:40:34;27.00;75.00
50570;DHT22;36525;49.398;7.614;2023-06-14T09:43:06;27.40;74.60
50570;DHT22;36525;49.398;7.614;2023-06-14T09:45:38;27.50;73.80
50570;DHT22;36525;49.398;7.614;2023-06-14T09:48:12;27.50;74.30
50570;DHT22;36525;49.398;7.614;2023-06-14T09:50:49;27.80;73.40
50570;DHT22;36525;49.398;7.614;2023-06-14T09:53:21;28.00;72.80
50570;DHT22;36525;49.398;7.614;2023-06-14T09:55:50;28.20;71.60
50570;DHT22;36525;49.398;7.614;2023-06-14T09:58:20;27.90;71.40
50570;DHT22;36525;49.398;7.614;2023-06-14T10:00:51;27.40;71.00
50570;DHT22;36525;49.398;7.614;2023-06-14T10:03:24;27.20;70.70
50570;DHT22;36525;49.398;7.614;2023-06-14T10:06:02;27.30;70.40
50570;DHT22;36525;49.398;7.614;2023-06-14T10:08:31;27.00;70.30
50570;DHT22;36525;49.398;7.614;2023-06-14T10:11:00;27.10;68.90
50570;DHT22;36525;49.398;7.614;2023-06-14T10:13:30;27.20;69.70
50570;DHT22;36525;49.398;7.614;2023-06-14T10:16:15;27.80;69.40
50570;DHT22;36525;49.398;7.614;2023-06-14T10:19:04;27.70;67.90
50570;DHT22;36525;49.398;7.614;2023-06-14T10:22:13;27.60;67.90
50570;DHT22;36525;49.398;7.614;2023-06-14T10:24:43;27.50;69.00
50570;DHT22;36525;49.398;7.614;2023-06-14T10:27:16;27.90;68.10
50570;DHT22;36525;49.398;7.614;2023-06-14T10:32:21;27.30;67.60
50570;DHT22;36525;49.398;7.614;2023-06-14T10:35:15;27.70;68.00
50570;DHT22;36525;49.398;7.614;2023-06-14T10:37:46;28.30;67.80
50570;DHT22;36525;49.398;7.614;2023-06-14T10:40:30;28.80;66.10
50570;DHT22;36525;49.398;7.614;2023-06-14T10:42:58;28.20;66.00
50570;DHT22;36525;49.398;7.614;2023-06-14T10:45:26;27.90;68.60
50570;DHT22;36525;49.398;7.614;2023-06-14T10:47:57;27.60;66.00
50570;DHT22;36525;49.398;7.614;2023-06-14T10:50:28;27.40;66.30
50570;DHT22;36525;49.398;7.614;2023-06-14T10:53:00;27.60;66.40
50570;DHT22;36525;49.398;7.614;2023-06-14T10:55:27;27.40;66.30
50570;DHT22;36525;49.398;7.614;2023-06-14T10:58:01;27.90;68.50
50570;DHT22;36525;49.398;7.614;2023-06-14T11:00:31;27.80;66.80
50570;DHT22;36525;49.398;7.614;2023-06-14T11:03:24;27.60;66.40
50570;DHT22;36525;49.398;7.614;2023-06-14T11:05:57;27.60;66.50
50570;DHT22;36525;49.398;7.614;2023-06-14T11:08:51;27.90;65.90
50570;DHT22;36525;49.398;7.614;2023-06-14T11:11:32;28.20;65.10
50570;DHT22;36525;49.398;7.614;2023-06-14T11:14:02;27.70;66.40
50570;DHT22;36525;49.398;7.614;2023-06-14T11:16:32;27.50;65.40
50570;DHT22;36525;49.398;7.614;2023-06-14T11:19:03;27.70;65.90
50570;DHT22;36525;49.398;7.614;2023-06-14T11:21:32;28.20;65.70
50570;DHT22;36525;49.398;7.614;2023-06-14T11:24:00;28.80;65.90
50570;DHT22;36525;49.398;7.614;2023-06-14T11:26:31;28.70;65.10
50570;DHT22;36525;49.398;7.614;2023-06-14T11:29:01;28.60;64.90
50570;DHT22;36525;49.398;7.614;2023-06-14T11:31:29;29.20;64.70
50570;DHT22;36525;49.398;7.614;2023-06-14T11:33:58;29.30;64.00
50570;DHT22;36525;49.398;7.614;2023-06-14T11:36:27;29.10;64.00
50570;DHT22;36525;49.398;7.614;2023-06-14T11:39:05;29.10;64.40
50570;DHT22;36525;49.398;7.614;2023-06-14T11:41:43;29.20;63.70
50570;DHT22;36525;49.398;7.614;2023-06-14T11:44:11;28.90;63.50
50570;DHT22;36525;49.398;7.614;2023-06-14T11:46:39;29.10;64.60
50570;DHT22;36525;49.398;7.614;2023-06-14T11:49:08;28.80;64.20
50570;DHT22;36525;49.398;7.614;2023-06-14T11:51:36;28.60;64.40
50570;DHT22;36525;49.398;7.614;2023-06-14T11:54:06;28.70;63.10
50570;DHT22;36525;49.398;7.614;2023-06-14T11:56:33;28.30;63.20
50570;DHT22;36525;49.398;7.614;2023-06-14T11:59:02;28.30;64.00
50570;DHT22;36525;49.398;7.614;2023-06-14T12:01:36;28.80;64.10
50570;DHT22;36525;49.398;7.614;2023-06-14T12:04:05;28.90;63.40
50570;DHT22;36525;49.398;7.614;2023-06-14T12:06:32;29.00;63.60
50570;DHT22;36525;49.398;7.614;2023-06-14T12:09:03;28.40;62.20
50570;DHT22;36525;49.398;7.614;2023-06-14T12:11:35;28.30;62.90
50570;DHT22;36525;49.398;7.614;2023-06-14T12:14:05;28.50;62.40
50570;DHT22;36525;49.398;7.614;2023-06-14T12:16:34;28.90;63.00
50570;DHT22;36525;49.398;7.614;2023-06-14T12:19:15;29.10;61.60
50570;DHT22;36525;49.398;7.614;2023-06-14T12:21:46;28.80;62.50
50570;DHT22;36525;49.398;7.614;2023-06-14T12:24:17;29.20;62.90
50570;DHT22;36525;49.398;7.614;2023-06-14T12:26:45;29.90;62.00
50570;DHT22;36525;49.398;7.614;2023-06-14T12:29:13;30.20;61.80
50570;DHT22;36525;49.398;7.614;2023-06-14T12:31:40;30.00;62.20
50570;DHT22;36525;49.398;7.614;2023-06-14T12:34:09;29.70;62.30
50570;DHT22;36525;49.398;7.614;2023-06-14T12:36:36;29.70;63.70
50570;DHT22;36525;49.398;7.614;2023-06-14T12:39:08;30.10;63.10
50570;DHT22;36525;49.398;7.614;2023-06-14T12:41:36;30.40;63.00
50570;DHT22;36525;49.398;7.614;2023-06-14T12:44:04;30.30;61.60
50570;DHT22;36525;49.398;7.614;2023-06-14T12:46:34;30.10;61.80
50570;DHT22;36525;49.398;7.614;2023-06-14T12:49:01;29.40;62.80
50570;DHT22;36525;49.398;7.614;2023-06-14T12:51:28;29.30;63.10
50570;DHT22;36525;49.398;7.614;2023-06-14T12:53:56;29.40;64.10
50570;DHT22;36525;49.398;7.614;2023-06-14T12:56:23;29.60;63.00
50570;DHT22;36525;49.398;7.614;2023-06-14T12:58:51;30.00;62.90
50570;DHT22;36525;49.398;7.614;2023-06-14T13:01:19;30.10;61.90
50570;DHT22;36525;49.398;7.614;2023-06-14T13:03:47;30.30;62.90
50570;DHT22;36525;49.398;7.614;2023-06-14T13:06:14;30.40;63.20
50570;DHT22;36525;49.398;7.614;2023-06-14T13:08:42;29.80;62.70
50570;DHT22;36525;49.398;7.614;2023-06-14T13:11:10;29.90;62.50
50570;DHT22;36525;49.398;7.614;2023-06-14T13:13:38;30.30;63.30
50570;DHT22;36525;49.398;7.614;2023-06-14T13:16:05;30.40;62.20
50570;DHT22;36525;49.398;7.614;2023-06-14T13:18:32;30.00;61.80
50570;DHT22;36525;49.398;7.614;2023-06-14T13:20:59;29.90;62.90
50570;DHT22;36525;49.398;7.614;2023-06-14T13:23:28;30.50;63.50
50570;DHT22;36525;49.398;7.614;2023-06-14T13:25:55;30.90;62.50
50570;DHT22;36525;49.398;7.614;2023-06-14T13:28:22;30.90;62.50
50570;DHT22;36525;49.398;7.614;2023-06-14T13:30:49;31.10;61.90
50570;DHT22;36525;49.398;7.614;2023-06-14T13:33:16;30.30;62.20
50570;DHT22;36525;49.398;7.614;2023-06-14T13:38:11;28.10;63.20
50570;DHT22;36525;49.398;7.614;2023-06-14T13:40:39;28.00;64.60
50570;DHT22;36525;49.398;7.614;2023-06-14T13:43:06;28.60;63.40
50570;DHT22;36525;49.398;7.614;2023-06-14T13:45:33;29.10;63.10
50570;DHT22;36525;49.398;7.614;2023-06-14T13:48:01;29.80;63.60
50570;DHT22;36525;49.398;7.614;2023-06-14T13:50:29;30.40;62.50
50570;DHT22;36525;49.398;7.614;2023-06-14T13:52:56;31.00;61.10
50570;DHT22;36525;49.398;7.614;2023-06-14T13:55:23;31.50;61.30
50570;DHT22;36525;49.398;7.614;2023-06-14T13:57:49;31.60;60.70
50570;DHT22;36525;49.398;7.614;2023-06-14T14:00:17;31.60;60.40
50570;DHT22;36525;49.398;7.614;2023-06-14T14:02:49;31.30;60.70
50570;DHT22;36525;49.398;7.614;2023-06-14T14:05:17;30.90;60.10
50570;DHT22;36525;49.398;7.614;2023-06-14T14:07:44;30.70;61.00
50570;DHT22;36525;49.398;7.614;2023-06-14T14:10:11;30.50;60.70
50570;DHT22;36525;49.398;7.614;2023-06-14T14:12:40;30.70;61.80
50570;DHT22;36525;49.398;7.614;2023-06-14T14:15:08;31.30;60.60
50570;DHT22;36525;49.398;7.614;2023-06-14T14:17:40;32.00;60.30
50570;DHT22;36525;49.398;7.614;2023-06-14T14:20:08;31.60;59.80
50570;DHT22;36525;49.398;7.614;2023-06-14T14:22:36;30.60;60.20
50570;DHT22;36525;49.398;7.614;2023-06-14T14:25:03;29.90;60.30
50570;DHT22;36525;49.398;7.614;2023-06-14T14:27:31;29.90;62.70
50570;DHT22;36525;49.398;7.614;2023-06-14T14:29:59;30.50;60.30
50570;DHT22;36525;49.398;7.614;2023-06-14T14:32:27;30.70;59.90
50570;DHT22;36525;49.398;7.614;2023-06-14T14:34:54;30.90;59.70
50570;DHT22;36525;49.398;7.614;2023-06-14T14:37:21;31.40;59.60
50570;DHT22;36525;49.398;7.614;2023-06-14T14:39:48;31.50;58.70
50570;DHT22;36525;49.398;7.614;2023-06-14T14:42:15;30.90;58.30
50570;DHT22;36525;49.398;7.614;2023-06-14T14:44:43;31.00;59.00
50570;DHT22;36525;49.398;7.614;2023-06-14T14:47:11;31.10;58.50
50570;DHT22;36525;49.398;7.614;2023-06-14T14:49:38;30.70;58.80
50570;DHT22;36525;49.398;7.614;2023-06-14T14:52:06;30.70;59.50
50570;DHT22;36525;49.398;7.614;2023-06-14T14:54:48;31.30;58.70
50570;DHT22;36525;49.398;7.614;2023-06-14T14:57:15;31.70;58.60
50570;DHT22;36525;49.398;7.614;2023-06-14T14:59:42;32.10;58.20
50570;DHT22;36525;49.398;7.614;2023-06-14T15:02:09;31.80;58.20
50570;DHT22;36525;49.398;7.614;2023-06-14T15:04:37;31.60;58.50
50570;DHT22;36525;49.398;7.614;2023-06-14T15:07:04;31.50;58.20
50570;DHT22;36525;49.398;7.614;2023-06-14T15:09:33;31.20;58.30
50570;DHT22;36525;49.398;7.614;2023-06-14T15:12:01;31.10;58.40
50570;DHT22;36525;49.398;7.614;2023-06-14T15:14:29;31.60;59.00
50570;DHT22;36525;49.398;7.614;2023-06-14T15:16:57;31.90;57.80
50570;DHT22;36525;49.398;7.614;2023-06-14T15:19:25;31.50;59.20
50570;DHT22;36525;49.398;7.614;2023-06-14T15:21:52;31.40;58.30
50570;DHT22;36525;49.398;7.614;2023-06-14T15:24:19;31.70;58.00
50570;DHT22;36525;49.398;7.614;2023-06-14T15:27:03;32.10;58.40
50570;DHT22;36525;49.398;7.614;2023-06-14T15:29:31;32.00;57.70
50570;DHT22;36525;49.398;7.614;2023-06-14T15:31:58;32.10;58.30
50570;DHT22;36525;49.398;7.614;2023-06-14T15:34:25;31.60;59.10
50570;DHT22;36525;49.398;7.614;2023-06-14T15:36:52;31.70;59.30
50570;DHT22;36525;49.398;7.614;2023-06-14T15:39:20;32.20;58.20
50570;DHT22;36525;49.398;7.614;2023-06-14T15:41:47;32.40;58.40
50570;DHT22;36525;49.398;7.614;2023-06-14T15:44:14;32.10;58.30
50570;DHT22;36525;49.398;7.614;2023-06-14T15:46:41;31.50;58.80